Time;durP1;ratioP1;P1;durP2;ratioP2;P2;SDS_P1;SDS_P2;PMS_P1;PMS_P2;Temp;Humidity;BMP_temperature;BMP_pressure;BME280_temperature;BME280_humidity;BME280_pressure;Samples;Min_cycle;Max_cycle;Signal;HPM_P1;HPM_P2
2023/05/04 00:01:58;;;;;;;2.53;2.30;;;9.50;57.40;;;;;;953363;147;27378;-76
2023/05/04 00:04:25;;;;;;;3.57;2.40;;;9.40;57.60;;;;;;941681;150;27331;-76
2023/05/04 00:06:51;;;;;;;2.47;2.10;;;9.40;57.80;;;;;;932441;151;27410;-76
2023/05/04 00:09:18;;;;;;;3.50;2.20;;;9.40;57.90;;;;;;935507;150;27489;-76
2023/05/04 00:11:44;;;;;;;3.10;2.23;;;9.40;58.00;;;;;;949268;151;27455;-76
2023/05/04 00:14:11;;;;;;;2.73;2.40;;;9.30;57.80;;;;;;949029;151;27455;-76
2023/05/04 00:16:37;;;;;;;2.57;2.27;;;9.30;58.20;;;;;;949027;151;27363;-76
2023/05/04 00:19:04;;;;;;;2.83;1.97;;;9.30;58.40;;;;;;948813;151;27363;-76
2023/05/04 00:21:31;;;;;;;2.63;1.90;;;9.30;58.40;;;;;;949576;151;27328;-76
2023/05/04 00:23:57;;;;;;;2.43;2.23;;;9.30;58.50;;;;;;949258;151;27290;-76
2023/05/04 00:26:24;;;;;;;2.83;2.40;;;9.20;58.60;;;;;;949630;151;27439;-75
2023/05/04 00:28:50;;;;;;;2.87;2.60;;;9.20;58.70;;;;;;933399;151;27483;-76
2023/05/04 00:31:17;;;;;;;2.10;1.90;;;9.20;58.80;;;;;;951743;147;27322;-76
2023/05/04 00:33:44;;;;;;;2.13;1.93;;;9.20;58.80;;;;;;952367;148;27736;-76
2023/05/04 00:36:12;;;;;;;2.40;2.20;;;9.10;58.80;;;;;;951843;148;27350;-76
2023/05/04 00:38:49;;;;;;;3.33;2.30;;;9.10;58.90;;;;;;951718;148;27362;-76
2023/05/04 00:41:16;;;;;;;2.73;2.10;;;9.10;59.20;;;;;;951147;150;27825;-76
2023/05/04 00:43:42;;;;;;;2.13;2.03;;;9.10;59.20;;;;;;951428;148;27315;-76
2023/05/04 00:46:09;;;;;;;2.40;2.30;;;9.10;59.50;;;;;;950765;148;27734;-77
2023/05/04 00:48:35;;;;;;;2.70;2.50;;;9.00;59.50;;;;;;950823;148;27311;-75
2023/05/04 00:51:02;;;;;;;5.30;2.40;;;9.00;59.60;;;;;;950297;148;27358;-75
2023/05/04 00:53:29;;;;;;;2.57;2.37;;;9.00;59.60;;;;;;949132;151;27279;-76
2023/05/04 00:55:55;;;;;;;3.20;2.13;;;9.00;59.60;;;;;;952689;148;27435;-76
2023/05/04 00:58:22;;;;;;;2.90;2.70;;;9.00;59.60;;;;;;949880;148;27470;-76
2023/05/04 01:00:48;;;;;;;2.13;1.97;;;8.90;59.60;;;;;;945689;150;27453;-76
2023/05/04 01:03:15;;;;;;;2.67;2.47;;;8.90;59.80;;;;;;945481;151;27309;-76
2023/05/04 01:09:41;;;;;;;5.47;2.10;;;8.80;59.70;;;;;;945122;149;27477;-76
2023/05/04 01:12:17;;;;;;;2.37;2.20;;;8.80;59.50;;;;;;927685;151;27376;-76
2023/05/04 01:14:44;;;;;;;3.00;2.20;;;8.70;59.50;;;;;;927008;152;27498;-76
2023/05/04 01:17:11;;;;;;;2.23;2.10;;;8.70;59.80;;;;;;946977;149;27360;-76
2023/05/04 01:19:37;;;;;;;2.50;2.30;;;8.70;60.00;;;;;;946435;148;27417;-75
2023/05/04 01:22:04;;;;;;;2.37;2.17;;;8.70;60.20;;;;;;947141;149;27888;-76
2023/05/04 01:24:30;;;;;;;2.33;2.13;;;8.70;60.30;;;;;;947143;149;27346;-76
2023/05/04 01:27:01;;;;;;;2.47;2.27;;;8.60;60.50;;;;;;930086;151;27404;-76
2023/05/04 01:29:29;;;;;;;2.47;2.27;;;8.60;60.70;;;;;;943983;148;27841;-76
2023/05/04 01:31:56;;;;;;;2.13;2.03;;;8.60;60.80;;;;;;946128;148;27327;-76
2023/05/04 01:34:22;;;;;;;3.23;2.20;;;8.60;60.90;;;;;;946878;149;27416;-76
2023/05/04 01:36:49;;;;;;;2.40;2.30;;;8.60;60.90;;;;;;931015;151;27385;-76
2023/05/04 01:39:16;;;;;;;2.67;2.23;;;8.50;60.90;;;;;;947667;149;27411;-76
2023/05/04 01:41:42;;;;;;;2.63;2.40;;;8.50;61.00;;;;;;935809;151;27415;-76
2023/05/04 01:44:09;;;;;;;2.33;2.13;;;8.50;61.90;;;;;;927677;152;27462;-75
2023/05/04 01:46:35;;;;;;;2.47;2.27;;;8.50;61.30;;;;;;946949;148;27457;-76
2023/05/04 01:49:02;;;;;;;2.63;2.10;;;8.50;61.40;;;;;;946968;149;27279;-76
2023/05/04 01:51:28;;;;;;;2.87;2.43;;;8.40;61.50;;;;;;947053;149;27414;-76
2023/05/04 01:53:55;;;;;;;2.50;2.37;;;8.40;61.50;;;;;;936140;151;27314;-76
2023/05/04 01:56:22;;;;;;;2.50;2.30;;;8.40;61.60;;;;;;926921;151;27524;-76
2023/05/04 01:58:48;;;;;;;2.83;2.27;;;8.40;61.70;;;;;;946178;149;27371;-76
2023/05/04 02:01:15;;;;;;;1.97;1.87;;;8.30;61.60;;;;;;935128;149;27354;-75
2023/05/04 02:03:41;;;;;;;2.60;2.40;;;8.30;61.70;;;;;;918656;152;27452;-76
2023/05/04 02:06:08;;;;;;;2.50;2.30;;;8.30;61.90;;;;;;912090;153;27341;-75
2023/05/04 02:08:34;;;;;;;2.40;2.20;;;8.20;61.90;;;;;;912301;153;27481;-75
2023/05/04 02:20:31;;;;;;;2.67;2.27;;;8.00;61.60;;;;;;911551;153;27516;-77
2023/05/04 02:22:57;;;;;;;2.60;2.40;;;8.00;62.10;;;;;;934831;150;27364;-77
2023/05/04 02:25:24;;;;;;;2.80;2.60;;;8.00;62.40;;;;;;934577;149;27829;-77
2023/05/04 02:27:50;;;;;;;2.00;1.90;;;7.90;62.70;;;;;;912315;152;27358;-77
2023/05/04 02:30:17;;;;;;;2.80;2.30;;;7.90;63.00;;;;;;934186;149;27287;-77
2023/05/04 02:32:44;;;;;;;2.90;2.47;;;7.90;63.00;;;;;;934707;150;27386;-77
2023/05/04 02:35:11;;;;;;;3.20;2.90;;;7.90;63.20;;;;;;934036;149;28093;-77
2023/05/04 02:37:37;;;;;;;4.00;2.70;;;7.90;63.30;;;;;;911997;153;27343;-77
2023/05/04 02:40:03;;;;;;;2.90;2.60;;;7.90;63.50;;;;;;926962;152;27331;-77
2023/05/04 02:42:30;;;;;;;3.90;2.47;;;7.90;63.60;;;;;;912927;152;27913;-77
2023/05/04 02:44:56;;;;;;;2.90;2.60;;;7.90;63.80;;;;;;918088;152;27487;-77
2023/05/04 02:47:23;;;;;;;2.73;2.20;;;7.90;63.90;;;;;;919144;152;27323;-77
2023/05/04 02:49:50;;;;;;;5.33;2.60;;;7.90;63.90;;;;;;918258;152;27332;-77
2023/05/04 02:52:16;;;;;;;2.60;2.40;;;7.90;64.20;;;;;;912045;152;27360;-77
2023/05/04 02:54:43;;;;;;;3.07;2.83;;;7.90;64.10;;;;;;925666;152;27401;-76
2023/05/04 02:57:09;;;;;;;2.97;2.67;;;7.80;64.10;;;;;;911946;153;28094;-76
2023/05/04 02:59:36;;;;;;;3.23;2.90;;;7.80;64.10;;;;;;934689;149;27259;-76
2023/05/04 03:02:03;;;;;;;4.10;2.47;;;7.90;64.40;;;;;;935021;149;27454;-76
2023/05/04 03:04:29;;;;;;;2.70;2.50;;;7.80;64.40;;;;;;934183;149;27365;-76
2023/05/04 03:06:56;;;;;;;2.90;2.70;;;7.80;64.50;;;;;;917861;152;28567;-76
2023/05/04 03:09:22;;;;;;;3.27;2.77;;;7.80;64.60;;;;;;917754;151;27410;-76
2023/05/04 03:11:49;;;;;;;3.23;2.70;;;7.80;64.60;;;;;;919369;152;27416;-76
2023/05/04 03:14:15;;;;;;;3.40;3.07;;;7.80;64.60;;;;;;924579;152;27381;-75
2023/05/04 03:16:42;;;;;;;2.73;2.53;;;7.80;64.70;;;;;;912265;153;27389;-75
2023/05/04 03:19:09;;;;;;;3.20;2.63;;;7.80;64.70;;;;;;933336;149;28036;-75
2023/05/04 03:21:35;;;;;;;3.03;2.73;;;7.80;64.90;;;;;;920431;152;27409;-75
2023/05/04 03:24:02;;;;;;;3.37;3.00;;;7.80;64.90;;;;;;912860;153;27496;-75
2023/05/04 03:26:28;;;;;;;2.83;2.50;;;7.80;64.90;;;;;;916893;153;27428;-74
2023/05/04 03:28:55;;;;;;;2.73;2.50;;;7.80;65.00;;;;;;934485;149;27321;-75
2023/05/04 03:31:22;;;;;;;2.60;2.40;;;7.80;65.00;;;;;;917903;152;27359;-74
2023/05/04 03:33:48;;;;;;;4.27;2.87;;;7.80;65.20;;;;;;923951;152;27640;-75
2023/05/04 03:36:15;;;;;;;2.57;2.30;;;7.80;65.20;;;;;;935105;149;27438;-75
2023/05/04 03:38:41;;;;;;;3.33;2.73;;;7.80;65.30;;;;;;934026;149;27878;-75
2023/05/04 03:41:08;;;;;;;2.67;2.47;;;7.80;65.50;;;;;;934247;149;27372;-75
2023/05/04 03:43:34;;;;;;;3.03;2.67;;;7.80;65.60;;;;;;933871;149;27326;-75
2023/05/04 03:46:01;;;;;;;2.90;2.63;;;7.80;65.70;;;;;;934264;150;27323;-75
2023/05/04 03:48:28;;;;;;;3.13;2.90;;;7.80;65.80;;;;;;935048;149;27369;-75
2023/05/04 03:50:54;;;;;;;3.53;2.83;;;7.80;65.90;;;;;;933928;149;27336;-75
2023/05/04 03:53:21;;;;;;;2.73;2.47;;;7.80;66.00;;;;;;933328;149;27807;-75
2023/05/04 03:55:47;;;;;;;3.00;2.70;;;7.80;66.00;;;;;;934937;149;27320;-75
2023/05/04 03:58:14;;;;;;;3.40;3.00;;;7.80;66.00;;;;;;933315;149;27429;-75
2023/05/04 04:00:41;;;;;;;3.43;2.80;;;7.80;66.10;;;;;;938918;147;27431;-75
2023/05/04 04:03:07;;;;;;;3.23;2.93;;;7.90;66.00;;;;;;953991;147;27280;-75
2023/05/04 04:05:34;;;;;;;3.30;2.70;;;7.90;66.00;;;;;;952917;147;27378;-75
2023/05/04 04:08:00;;;;;;;3.73;2.40;;;7.90;66.20;;;;;;953987;147;27434;-75
2023/05/04 04:10:27;;;;;;;4.43;2.90;;;7.90;66.20;;;;;;953530;147;27398;-74
2023/05/04 04:12:53;;;;;;;3.43;2.93;;;8.00;66.30;;;;;;953432;147;27639;-75
2023/05/04 04:15:20;;;;;;;3.20;2.90;;;8.00;66.40;;;;;;952797;147;27506;-75
2023/05/04 04:17:47;;;;;;;3.33;2.90;;;8.00;66.60;;;;;;953396;147;27358;-75
2023/05/04 04:20:14;;;;;;;7.03;2.87;;;8.10;66.60;;;;;;934719;151;27384;-74
2023/05/04 04:22:40;;;;;;;4.10;2.90;;;8.10;66.60;;;;;;951484;148;27268;-75
2023/05/04 04:25:07;;;;;;;3.70;2.83;;;8.20;66.70;;;;;;951557;148;27335;-75
2023/05/04 04:27:33;;;;;;;2.93;2.63;;;8.20;66.70;;;;;;951573;148;27327;-75
2023/05/04 04:30:00;;;;;;;4.20;2.77;;;8.30;66.70;;;;;;951446;148;27467;-75
2023/05/04 04:32:26;;;;;;;3.23;3.03;;;8.40;66.90;;;;;;951367;148;27418;-75
2023/05/04 04:34:53;;;;;;;3.20;2.90;;;8.50;66.80;;;;;;935680;150;27373;-74
2023/05/04 04:37:19;;;;;;;4.17;3.20;;;8.60;66.90;;;;;;933120;151;27699;-75
2023/05/04 04:39:46;;;;;;;3.07;2.87;;;8.60;66.80;;;;;;943897;149;27400;-75
2023/05/04 04:42:13;;;;;;;3.40;2.90;;;8.80;66.80;;;;;;934425;150;27381;-74
2023/05/04 04:44:39;;;;;;;3.00;2.80;;;8.80;66.90;;;;;;950335;148;27335;-74
2023/05/04 04:47:06;;;;;;;4.57;3.17;;;8.90;66.90;;;;;;948191;151;27402;-75
2023/05/04 04:49:32;;;;;;;3.40;3.20;;;9.00;66.80;;;;;;936265;150;27338;-75
2023/05/04 04:51:59;;;;;;;5.90;3.10;;;9.20;66.80;;;;;;941470;148;27368;-75
2023/05/04 04:54:26;;;;;;;3.00;2.70;;;9.30;66.90;;;;;;932357;151;27386;-75
2023/05/04 04:56:52;;;;;;;4.40;3.23;;;9.40;66.70;;;;;;951453;148;27288;-75
2023/05/04 04:59:19;;;;;;;2.93;2.73;;;9.60;66.80;;;;;;951934;147;27394;-76
2023/05/04 05:01:45;;;;;;;3.30;3.00;;;9.70;66.80;;;;;;951854;148;27460;-77
2023/05/04 05:04:12;;;;;;;4.83;3.30;;;9.90;66.80;;;;;;951668;148;27350;-77
2023/05/04 05:06:38;;;;;;;4.27;3.00;;;10.10;66.90;;;;;;935680;150;27429;-77
2023/05/04 05:09:05;;;;;;;3.73;3.13;;;10.40;67.00;;;;;;951729;147;27344;-77
2023/05/04 05:11:32;;;;;;;3.30;3.00;;;10.60;67.00;;;;;;950753;148;27319;-77
2023/05/04 05:13:58;;;;;;;4.13;2.90;;;10.90;67.00;;;;;;949294;151;27385;-77
2023/05/04 05:16:25;;;;;;;4.67;3.20;;;11.20;66.80;;;;;;949108;151;27365;-77
2023/05/04 05:18:51;;;;;;;5.00;3.27;;;11.60;66.60;;;;;;948908;151;27312;-77
2023/05/04 05:21:18;;;;;;;3.90;3.37;;;11.90;66.40;;;;;;949504;148;27407;-77
2023/05/04 05:23:44;;;;;;;3.63;3.33;;;12.30;66.30;;;;;;949805;151;27430;-74
2023/05/04 05:26:11;;;;;;;3.20;2.90;;;12.70;65.80;;;;;;949624;151;27380;-75
2023/05/04 05:28:38;;;;;;;3.57;3.27;;;13.20;65.20;;;;;;949230;151;27275;-75
2023/05/04 05:31:05;;;;;;;4.22;2.98;;;13.60;64.40;;;;;;948680;148;27518;-75
2023/05/04 05:33:31;;;;;;;5.00;2.97;;;13.90;63.60;;;;;;949009;151;27431;-75
2023/05/04 05:35:57;;;;;;;3.73;2.70;;;14.30;62.80;;;;;;949226;151;27475;-75
2023/05/04 05:38:25;;;;;;;4.27;2.80;;;14.60;62.40;;;;;;947843;151;27346;-75
2023/05/04 05:40:51;;;;;;;3.27;2.98;;;14.80;61.60;;;;;;949736;148;27340;-75
2023/05/04 05:43:17;;;;;;;5.22;3.85;;;15.10;61.10;;;;;;931780;151;27305;-75
2023/05/04 05:45:44;;;;;;;5.43;3.10;;;15.30;60.40;;;;;;931959;151;27320;-75
2023/05/04 05:48:10;;;;;;;3.15;2.85;;;15.50;60.00;;;;;;948788;151;27461;-75
2023/05/04 05:50:37;;;;;;;3.17;2.80;;;15.70;59.50;;;;;;948994;148;27407;-75
2023/05/04 05:53:04;;;;;;;3.45;3.15;;;15.90;59.20;;;;;;949122;148;27305;-75
2023/05/04 05:55:30;;;;;;;3.37;3.08;;;16.10;58.90;;;;;;949979;148;27443;-75
2023/05/04 05:57:57;;;;;;;2.83;2.62;;;16.20;59.30;;;;;;932706;151;27379;-75
2023/05/04 06:00:23;;;;;;;3.20;2.90;;;16.50;58.50;;;;;;938570;150;27336;-75
2023/05/04 06:02:50;;;;;;;3.35;3.10;;;16.60;58.30;;;;;;941695;148;27463;-75
2023/05/04 06:05:16;;;;;;;4.70;3.05;;;16.90;58.30;;;;;;933310;149;27392;-75
2023/05/04 06:07:43;;;;;;;5.00;3.02;;;17.20;58.20;;;;;;935114;150;27459;-75
2023/05/04 06:10:10;;;;;;;3.10;2.77;;;17.40;58.20;;;;;;921909;151;27395;-75
2023/05/04 06:12:36;;;;;;;3.42;3.02;;;17.80;58.00;;;;;;917966;152;27325;-75
2023/05/04 06:15:03;;;;;;;3.90;2.85;;;18.20;57.90;;;;;;935153;149;27345;-75
2023/05/04 06:17:29;;;;;;;4.97;2.37;;;18.60;57.60;;;;;;917425;152;27387;-75
2023/05/04 06:19:56;;;;;;;4.10;3.08;;;19.10;57.40;;;;;;918629;152;27464;-75
2023/05/04 06:22:23;;;;;;;3.37;2.85;;;19.60;57.10;;;;;;911529;152;27360;-75
2023/05/04 06:24:50;;;;;;;4.75;2.77;;;20.10;56.70;;;;;;918047;152;27464;-76
2023/05/04 06:27:16;;;;;;;2.60;2.33;;;20.60;55.90;;;;;;918999;152;27355;-76
2023/05/04 06:29:42;;;;;;;4.87;2.50;;;21.10;55.10;;;;;;922223;152;27456;-76
2023/05/04 06:32:09;;;;;;;3.02;2.80;;;21.60;54.40;;;;;;919417;152;27481;-76
2023/05/04 06:34:36;;;;;;;3.17;2.10;;;22.10;53.90;;;;;;919380;152;27340;-76
2023/05/04 06:37:02;;;;;;;2.87;2.33;;;22.60;54.20;;;;;;912378;153;27332;-76
2023/05/04 06:39:29;;;;;;;6.70;3.02;;;23.10;53.10;;;;;;912298;153;27412;-76
2023/05/04 06:41:55;;;;;;;3.15;2.33;;;23.70;52.80;;;;;;934763;149;27428;-76
2023/05/04 06:44:22;;;;;;;2.40;2.20;;;24.30;52.00;;;;;;934579;149;28496;-76
2023/05/04 06:46:48;;;;;;;3.12;2.40;;;24.80;51.20;;;;;;934217;149;27329;-76
2023/05/04 06:49:16;;;;;;;2.27;2.17;;;25.30;50.40;;;;;;933544;149;27397;-76
2023/05/04 06:51:42;;;;;;;2.62;2.40;;;25.80;49.70;;;;;;933454;149;27356;-76
2023/05/04 06:54:08;;;;;;;3.47;2.40;;;26.20;49.10;;;;;;933059;149;27329;-76
2023/05/04 06:56:35;;;;;;;2.95;2.50;;;26.60;48.40;;;;;;933139;149;27318;-76
2023/05/04 06:59:01;;;;;;;2.40;2.20;;;26.90;47.30;;;;;;933503;149;27270;-76
2023/05/04 07:01:28;;;;;;;2.98;2.12;;;27.20;46.40;;;;;;933035;149;27384;-76
2023/05/04 07:03:57;;;;;;;3.58;2.12;;;27.30;45.40;;;;;;932574;149;27615;-76
2023/05/04 07:06:25;;;;;;;2.58;2.20;;;27.40;44.80;;;;;;934483;149;27300;-76
2023/05/04 07:08:48;;;;;;;2.00;1.80;;;27.40;44.70;;;;;;933020;149;27318;-76
2023/05/04 07:11:14;;;;;;;2.33;2.12;;;27.40;44.70;;;;;;934566;149;27368;-77
2023/05/04 07:13:41;;;;;;;2.10;1.90;;;27.60;44.60;;;;;;933963;149;27364;-76
2023/05/04 07:16:08;;;;;;;3.62;2.55;;;27.80;44.40;;;;;;934076;149;27329;-77
2023/05/04 07:18:34;;;;;;;3.37;1.98;;;28.00;44.50;;;;;;934169;149;27419;-77
2023/05/04 07:21:01;;;;;;;2.65;2.15;;;28.30;44.40;;;;;;933488;149;27422;-77
2023/05/04 07:23:27;;;;;;;1.87;1.77;;;28.70;44.20;;;;;;932974;149;27372;-77
2023/05/04 07:25:54;;;;;;;2.17;1.95;;;29.00;43.70;;;;;;933110;149;27262;-77
2023/05/04 07:28:20;;;;;;;1.87;1.77;;;29.40;43.40;;;;;;933807;149;27378;-77
2023/05/04 07:30:47;;;;;;;2.25;1.98;;;29.70;42.70;;;;;;933491;149;27410;-77
2023/05/04 07:33:14;;;;;;;2.60;2.10;;;30.00;42.20;;;;;;933161;149;27369;-77
2023/05/04 07:35:40;;;;;;;3.90;2.20;;;30.30;41.30;;;;;;933616;149;27365;-77
2023/05/04 07:38:07;;;;;;;2.22;1.90;;;30.40;40.80;;;;;;933179;149;27435;-77
2023/05/04 07:40:33;;;;;;;2.67;2.30;;;30.50;40.30;;;;;;933293;149;27397;-77
2023/05/04 07:43:00;;;;;;;3.12;2.30;;;30.50;40.10;;;;;;933385;149;27427;-77
2023/05/04 07:45:27;;;;;;;2.27;2.08;;;30.60;40.10;;;;;;933760;149;27359;-77
2023/05/04 07:47:53;;;;;;;1.90;1.67;;;30.80;40.30;;;;;;933075;149;27361;-77
2023/05/04 07:50:20;;;;;;;2.27;2.00;;;31.10;40.30;;;;;;933297;149;27325;-77
2023/05/04 07:52:48;;;;;;;1.98;1.87;;;31.50;40.30;;;;;;933580;149;26256;-77
2023/05/04 07:55:13;;;;;;;2.80;1.95;;;31.90;39.90;;;;;;935285;149;27838;-77
2023/05/04 07:57:40;;;;;;;2.98;2.17;;;32.30;39.30;;;;;;933405;149;27349;-77
2023/05/04 08:00:07;;;;;;;3.08;2.20;;;32.70;38.90;;;;;;933746;149;26309;-77
2023/05/04 08:02:33;;;;;;;2.08;1.87;;;33.10;38.50;;;;;;933438;149;26312;-77
2023/05/04 08:04:59;;;;;;;2.17;1.95;;;33.50;38.20;;;;;;952045;147;26270;-77
2023/05/04 08:07:26;;;;;;;3.10;2.50;;;33.80;37.90;;;;;;953843;147;26356;-77
2023/05/04 08:09:54;;;;;;;3.08;2.00;;;34.10;37.80;;;;;;953714;147;26434;-77
2023/05/04 08:12:19;;;;;;;2.65;1.95;;;34.50;37.50;;;;;;934966;150;26281;-77
2023/05/04 08:14:46;;;;;;;3.22;2.60;;;34.90;36.90;;;;;;939399;150;26239;-77
2023/05/04 08:17:12;;;;;;;5.47;2.22;;;35.30;36.50;;;;;;936187;150;26309;-77
2023/05/04 08:19:39;;;;;;;2.58;2.25;;;35.70;36.10;;;;;;934424;150;26369;-77
2023/05/04 08:22:06;;;;;;;2.15;1.90;;;36.00;35.70;;;;;;952052;148;26172;-78
2023/05/04 08:24:32;;;;;;;2.45;2.05;;;36.30;35.30;;;;;;951935;148;26234;-77
2023/05/04 08:27:00;;;;;;;2.95;2.30;;;36.70;35.10;;;;;;951034;147;26265;-78
2023/05/04 08:29:25;;;;;;;2.15;2.05;;;37.00;34.80;;;;;;951881;148;26269;-77
2023/05/04 08:31:52;;;;;;;2.10;1.90;;;37.40;34.50;;;;;;951178;147;26216;-77
2023/05/04 08:34:19;;;;;;;3.00;2.22;;;37.70;34.00;;;;;;950353;148;26319;-78
2023/05/04 08:36:45;;;;;;;2.20;2.00;;;38.00;33.20;;;;;;949861;148;26312;-78
2023/05/04 08:39:12;;;;;;;3.33;2.27;;;38.20;32.70;;;;;;950494;148;26724;-78
2023/05/04 08:41:39;;;;;;;2.50;1.77;;;38.30;31.90;;;;;;950493;148;26246;-77
2023/05/04 08:44:05;;;;;;;2.37;2.17;;;38.30;31.70;;;;;;950819;148;26239;-77
2023/05/04 08:46:32;;;;;;;2.58;2.37;;;38.30;31.50;;;;;;951533;148;26296;-78
2023/05/04 08:48:58;;;;;;;2.40;2.08;;;38.30;31.50;;;;;;932800;151;26676;-78
2023/05/04 08:51:25;;;;;;;2.70;2.45;;;38.30;31.30;;;;;;932080;151;26389;-78
2023/05/04 08:53:51;;;;;;;2.42;2.05;;;38.40;30.70;;;;;;952453;148;26245;-78
2023/05/04 08:56:18;;;;;;;3.62;2.40;;;38.50;31.40;;;;;;951689;148;26218;-78
2023/05/04 08:58:47;;;;;;;3.05;1.90;;;38.60;31.20;;;;;;950958;147;26308;-78
2023/05/04 09:01:14;;;;;;;2.45;2.20;;;38.80;31.00;;;;;;950811;148;26383;-78
2023/05/04 09:03:40;;;;;;;2.37;2.17;;;38.90;30.70;;;;;;950969;148;26246;-78
2023/05/04 09:06:07;;;;;;;2.62;2.30;;;39.00;30.50;;;;;;946824;148;26205;-78
2023/05/04 09:08:33;;;;;;;2.70;2.50;;;39.20;30.20;;;;;;931040;151;26271;-78
2023/05/04 09:11:00;;;;;;;2.67;2.47;;;39.30;29.90;;;;;;931323;151;26369;-78
2023/05/04 09:13:27;;;;;;;5.45;2.30;;;39.30;29.80;;;;;;947299;148;26167;-78
2023/05/04 09:15:56;;;;;;;3.35;2.55;;;39.30;29.70;;;;;;946824;149;26181;-78
2023/05/04 09:18:22;;;;;;;3.10;2.12;;;39.20;29.40;;;;;;946889;149;26279;-78
2023/05/04 09:20:49;;;;;;;2.60;2.40;;;39.10;29.40;;;;;;945989;149;26344;-78
2023/05/04 09:23:16;;;;;;;2.52;2.33;;;38.90;29.40;;;;;;945813;148;26231;-78
2023/05/04 09:25:51;;;;;;;2.87;2.27;;;38.80;29.50;;;;;;946687;149;26239;-78
2023/05/04 09:28:17;;;;;;;2.75;2.22;;;38.70;29.30;;;;;;947611;149;26267;-78
2023/05/04 09:30:44;;;;;;;3.72;2.52;;;38.50;29.30;;;;;;946220;149;26377;-78
2023/05/04 09:33:11;;;;;;;3.80;2.37;;;38.40;29.40;;;;;;946353;149;26357;-78
2023/05/04 09:35:40;;;;;;;2.35;2.15;;;38.20;29.30;;;;;;947131;149;26290;-78
2023/05/04 09:38:07;;;;;;;2.90;2.17;;;38.10;29.40;;;;;;946871;148;26248;-78
2023/05/04 09:40:36;;;;;;;2.27;2.08;;;38.00;29.40;;;;;;947368;148;26769;-78
2023/05/04 09:43:03;;;;;;;2.50;2.30;;;37.90;29.30;;;;;;945989;148;26304;-78
2023/05/04 09:45:39;;;;;;;2.67;2.42;;;37.80;29.20;;;;;;947060;148;26180;-78
2023/05/04 09:48:15;;;;;;;4.22;2.42;;;37.60;28.90;;;;;;946277;148;26299;-78
2023/05/04 09:50:41;;;;;;;2.55;2.35;;;37.40;28.90;;;;;;946539;148;26298;-78
2023/05/04 09:53:07;;;;;;;2.70;2.10;;;37.00;28.80;;;;;;946094;148;26332;-78
2023/05/04 09:55:34;;;;;;;4.17;2.70;;;36.60;28.80;;;;;;946573;148;27800;-78
2023/05/04 09:58:00;;;;;;;2.55;2.35;;;36.20;28.60;;;;;;946055;151;26330;-78
2023/05/04 10:00:27;;;;;;;2.62;2.42;;;35.70;28.70;;;;;;946604;148;27373;-78
2023/05/04 10:02:53;;;;;;;2.27;2.02;;;35.20;28.70;;;;;;927940;152;27430;-78
2023/05/04 10:05:21;;;;;;;4.60;2.35;;;34.60;28.70;;;;;;929963;151;27316;-78
2023/05/04 10:07:47;;;;;;;2.33;2.12;;;34.00;28.80;;;;;;947618;148;27321;-78
2023/05/04 10:10:13;;;;;;;3.00;2.40;;;33.50;29.10;;;;;;946793;148;27500;-78
2023/05/04 10:12:40;;;;;;;2.27;2.02;;;33.00;29.40;;;;;;947312;148;27840;-78
2023/05/04 10:15:09;;;;;;;2.35;2.20;;;32.50;29.70;;;;;;947629;148;27289;-78
2023/05/04 10:17:54;;;;;;;2.58;2.37;;;32.00;29.70;;;;;;947364;148;27339;-78
2023/05/04 10:20:42;;;;;;;2.17;1.90;;;31.60;29.80;;;;;;948463;148;27281;-78
2023/05/04 10:23:09;;;;;;;2.15;1.95;;;31.20;30.00;;;;;;948314;148;27441;-79
2023/05/04 10:25:57;;;;;;;2.45;2.25;;;30.80;30.10;;;;;;949863;148;27441;-78
2023/05/04 10:28:42;;;;;;;2.12;1.92;;;30.50;30.20;;;;;;949904;148;27348;-78
2023/05/04 10:31:08;;;;;;;3.15;2.10;;;30.20;30.30;;;;;;948421;148;27478;-79
2023/05/04 10:33:38;;;;;;;2.00;1.90;;;29.80;30.60;;;;;;949291;148;27338;-79
2023/05/04 10:36:04;;;;;;;2.27;2.08;;;29.60;30.90;;;;;;948691;148;27472;-79
2023/05/04 10:38:36;;;;;;;4.42;2.42;;;29.30;30.70;;;;;;928588;151;27427;-78
2023/05/04 10:41:18;;;;;;;1.98;1.87;;;29.10;31.00;;;;;;929936;151;27316;-79
2023/05/04 10:43:52;;;;;;;3.05;2.17;;;28.90;31.10;;;;;;930166;151;27482;-79
2023/05/04 10:46:22;;;;;;;2.00;1.90;;;28.60;31.30;;;;;;929754;151;27324;-79
2023/05/04 10:48:48;;;;;;;5.95;2.58;;;28.40;31.80;;;;;;926297;151;27444;-79
2023/05/04 10:51:18;;;;;;;2.35;2.20;;;28.20;31.60;;;;;;946760;148;27446;-78
2023/05/04 10:53:45;;;;;;;3.80;2.08;;;28.00;31.50;;;;;;946622;148;27425;-78
2023/05/04 10:56:23;;;;;;;2.30;2.10;;;27.80;31.50;;;;;;947401;148;27328;-78
2023/05/04 10:58:49;;;;;;;3.05;2.17;;;27.50;31.30;;;;;;929535;151;27364;-78
2023/05/04 11:01:16;;;;;;;2.20;2.10;;;27.30;31.60;;;;;;946663;149;27356;-79
2023/05/04 11:03:43;;;;;;;2.00;1.90;;;27.10;32.10;;;;;;926623;152;27547;-79
2023/05/04 11:06:21;;;;;;;1.87;1.77;;;26.90;32.50;;;;;;925827;150;27476;-79
2023/05/04 11:08:48;;;;;;;2.50;2.08;;;26.70;32.40;;;;;;935697;150;27431;-79
2023/05/04 11:11:14;;;;;;;2.30;2.10;;;26.60;32.30;;;;;;950851;148;27356;-79
2023/05/04 11:13:43;;;;;;;2.67;2.15;;;26.50;32.40;;;;;;934792;150;27371;-79
2023/05/04 11:16:08;;;;;;;2.52;1.75;;;26.40;32.50;;;;;;931999;151;27334;-79
2023/05/04 11:18:34;;;;;;;2.47;2.27;;;26.20;32.70;;;;;;949860;151;27272;-79
2023/05/04 11:21:01;;;;;;;2.72;2.35;;;26.10;33.10;;;;;;950031;148;27441;-79
2023/05/04 11:23:27;;;;;;;2.22;2.12;;;26.00;33.50;;;;;;948990;148;27452;-79
2023/05/04 11:25:54;;;;;;;3.12;2.05;;;26.00;33.60;;;;;;929446;150;27359;-79
2023/05/04 11:28:33;;;;;;;1.85;1.75;;;26.00;33.50;;;;;;935956;150;27398;-78
2023/05/04 11:30:59;;;;;;;3.65;2.47;;;26.00;33.50;;;;;;935280;150;27440;-79
2023/05/04 11:33:25;;;;;;;4.03;2.60;;;26.00;33.30;;;;;;934629;150;27466;-79
2023/05/04 11:35:52;;;;;;;2.55;1.87;;;26.00;33.30;;;;;;935690;150;27302;-79
2023/05/04 11:38:19;;;;;;;3.25;2.20;;;25.90;33.60;;;;;;934182;150;27330;-79
2023/05/04 11:40:45;;;;;;;2.05;1.95;;;25.90;33.90;;;;;;935808;150;27347;-79
2023/05/04 11:43:12;;;;;;;2.05;1.95;;;25.80;33.90;;;;;;951757;148;27434;-79
2023/05/04 11:45:38;;;;;;;2.58;2.37;;;25.80;34.00;;;;;;935321;150;27389;-79
2023/05/04 11:48:05;;;;;;;2.30;2.10;;;25.80;34.10;;;;;;932550;151;27323;-79
2023/05/04 11:50:32;;;;;;;2.60;2.10;;;25.90;34.20;;;;;;934803;150;27331;-79
2023/05/04 11:53:07;;;;;;;3.33;2.20;;;25.90;34.00;;;;;;950892;148;27384;-79
2023/05/04 11:55:33;;;;;;;1.90;1.80;;;25.80;33.80;;;;;;951199;148;27386;-79
2023/05/04 11:58:03;;;;;;;2.42;2.10;;;25.80;33.60;;;;;;950604;148;27417;-78
2023/05/04 12:00:44;;;;;;;1.92;1.80;;;25.80;33.90;;;;;;931511;150;27373;-78
2023/05/04 12:03:14;;;;;;;2.90;2.10;;;25.70;34.10;;;;;;929379;150;27387;-79
2023/05/04 12:05:46;;;;;;;2.22;1.98;;;25.70;34.20;;;;;;933647;150;27351;-79
2023/05/04 12:08:30;;;;;;;2.60;2.40;;;25.70;34.50;;;;;;916993;152;28029;-79
2023/05/04 12:11:16;;;;;;;2.35;2.15;;;25.80;34.80;;;;;;918673;152;27364;-79
2023/05/04 12:13:46;;;;;;;2.00;1.80;;;25.70;34.50;;;;;;909920;153;27422;-79
2023/05/04 12:16:14;;;;;;;2.95;2.30;;;25.80;34.30;;;;;;917087;152;27476;-79
2023/05/04 12:18:41;;;;;;;2.15;1.90;;;25.80;34.20;;;;;;918411;152;27414;-79
2023/05/04 12:21:07;;;;;;;2.55;2.17;;;25.80;34.20;;;;;;933787;149;27331;-78
2023/05/04 12:23:35;;;;;;;1.95;1.80;;;25.70;34.10;;;;;;933132;149;27363;-79
2023/05/04 12:26:01;;;;;;;2.65;1.87;;;25.70;34.50;;;;;;934011;149;27295;-79
2023/05/04 12:28:27;;;;;;;2.10;1.90;;;25.70;34.60;;;;;;934379;149;27412;-79
2023/05/04 12:30:54;;;;;;;6.12;2.10;;;25.70;34.70;;;;;;911367;152;27430;-78
2023/05/04 12:33:20;;;;;;;2.58;2.00;;;25.70;34.90;;;;;;911640;153;27797;-79
2023/05/04 12:35:47;;;;;;;2.60;2.40;;;25.60;34.60;;;;;;934417;149;27424;-78
2023/05/04 12:38:14;;;;;;;2.45;2.00;;;25.60;34.80;;;;;;918643;152;27379;-79
2023/05/04 12:40:40;;;;;;;2.08;1.98;;;25.60;35.10;;;;;;911345;152;27362;-79
2023/05/04 12:43:07;;;;;;;1.87;1.67;;;25.70;35.30;;;;;;933629;149;27405;-79
2023/05/04 12:45:33;;;;;;;2.60;2.40;;;25.70;34.90;;;;;;919385;152;27394;-79
2023/05/04 12:48:00;;;;;;;2.27;2.02;;;25.80;34.80;;;;;;912143;152;27438;-79
2023/05/04 12:50:26;;;;;;;3.15;2.27;;;25.80;34.90;;;;;;917675;152;27291;-79
2023/05/04 12:52:53;;;;;;;2.20;2.00;;;25.90;35.00;;;;;;919082;152;27343;-79
2023/05/04 12:55:20;;;;;;;3.42;2.17;;;25.90;34.90;;;;;;912305;153;27360;-79
2023/05/04 12:57:46;;;;;;;4.37;2.08;;;25.90;34.90;;;;;;917862;153;27382;-79
2023/05/04 13:00:14;;;;;;;3.90;2.45;;;25.90;34.80;;;;;;934321;149;27320;-78
2023/05/04 13:02:41;;;;;;;2.10;2.00;;;25.90;34.80;;;;;;911757;153;27407;-79
2023/05/04 13:05:07;;;;;;;2.10;2.00;;;25.90;34.80;;;;;;934773;149;27399;-79